createdAt,value
2023-02-12T00:01:28.550Z,4.50
2023-02-12T00:03:58.422Z,4.50
2023-02-12T00:06:26.841Z,4.50
2023-02-12T00:08:57.374Z,4.50
2023-02-12T00:11:28.817Z,4.50
2023-02-12T00:13:57.937Z,4.50
2023-02-12T00:16:29.825Z,4.50
2023-02-12T00:19:00.094Z,4.50
2023-02-12T00:21:29.492Z,4.50
2023-02-12T00:23:58.550Z,4.50
2023-02-12T00:26:26.610Z,4.50
2023-02-12T00:28:55.421Z,4.60
2023-02-12T00:31:27.184Z,4.60
2023-02-12T00:34:01.078Z,4.60
2023-02-12T00:36:32.090Z,4.70
2023-02-12T00:39:01.415Z,4.70
2023-02-12T00:41:30.404Z,4.80
2023-02-12T00:43:58.631Z,4.80
2023-02-12T00:46:26.661Z,4.80
2023-02-12T00:48:54.660Z,4.80
2023-02-12T00:51:24.244Z,4.80
2023-02-12T00:53:52.200Z,4.80
2023-02-12T00:56:20.281Z,4.80
2023-02-12T00:58:50.494Z,4.80
2023-02-12T01:01:19.179Z,4.80
2023-02-12T01:03:47.221Z,4.80
2023-02-12T01:06:15.254Z,4.90
2023-02-12T01:08:44.556Z,4.90
2023-02-12T01:11:14.537Z,4.90
2023-02-12T01:13:42.544Z,4.90
2023-02-12T01:16:17.459Z,4.80
2023-02-12T01:18:46.357Z,4.80
2023-02-12T01:21:19.265Z,4.90
2023-02-12T01:23:49.583Z,4.90
2023-02-12T01:26:20.391Z,4.80
2023-02-12T01:28:53.926Z,4.90
2023-02-12T01:31:25.487Z,4.90
2023-02-12T01:33:57.338Z,5.00
2023-02-12T01:36:26.814Z,5.00
2023-02-12T01:38:57.886Z,5.00
2023-02-12T01:41:29.506Z,5.00
2023-02-12T01:44:15.454Z,5.00
2023-02-12T01:46:45.878Z,5.10
2023-02-12T01:49:21.597Z,5.10
2023-02-12T01:51:54.896Z,5.00
2023-02-12T01:54:26.677Z,5.10
2023-02-12T01:56:55.644Z,5.00
2023-02-12T01:59:25.122Z,4.90
2023-02-12T02:01:54.023Z,4.90
2023-02-12T02:04:30.064Z,4.90
2023-02-12T02:07:01.032Z,4.90
2023-02-12T02:09:32.476Z,4.90
2023-02-12T02:12:18.334Z,4.90
2023-02-12T02:14:48.128Z,4.90
2023-02-12T02:17:47.583Z,5.00
2023-02-12T02:20:50.385Z,4.90
2023-02-12T02:24:00.111Z,5.00
2023-02-12T02:27:08.169Z,4.90
2023-02-12T02:30:19.188Z,5.00
2023-02-12T02:32:58.395Z,5.00
2023-02-12T02:35:39.891Z,5.00
2023-02-12T02:38:25.411Z,5.00
2023-02-12T02:41:02.704Z,5.00
2023-02-12T02:43:39.242Z,5.00
2023-02-12T02:46:13.038Z,5.10
2023-02-12T02:48:47.933Z,5.10
2023-02-12T02:51:22.560Z,5.20
2023-02-12T02:53:59.088Z,5.20
2023-02-12T02:56:28.776Z,5.20
2023-02-12T02:59:02.491Z,5.30
2023-02-12T03:01:39.555Z,5.40
2023-02-12T03:04:11.888Z,5.40
2023-02-12T03:06:47.232Z,5.60
2023-02-12T03:09:23.493Z,5.60
2023-02-12T03:11:51.738Z,5.60
2023-02-12T03:14:27.040Z,5.60
2023-02-12T03:17:02.627Z,5.60
2023-02-12T03:19:36.319Z,5.60
2023-02-12T03:22:10.421Z,5.60
2023-02-12T03:24:43.931Z,5.60
2023-02-12T03:27:18.781Z,5.60
2023-02-12T03:29:47.650Z,5.60
2023-02-12T03:32:30.859Z,5.60
2023-02-12T03:35:13.622Z,5.60
2023-02-12T03:37:54.290Z,5.60
2023-02-12T03:40:30.955Z,5.60
2023-02-12T03:43:05.570Z,5.70
2023-02-12T03:45:47.013Z,5.70
2023-02-12T03:48:28.041Z,5.70
2023-02-12T03:51:02.518Z,5.70
2023-02-12T03:53:32.538Z,5.80
2023-02-12T03:56:06.153Z,5.70
2023-02-12T03:58:37.144Z,5.80
2023-02-12T04:01:06.004Z,5.80
2023-02-12T04:03:35.900Z,5.80
2023-02-12T04:06:03.892Z,5.70
2023-02-12T04:08:33.728Z,5.70
2023-02-12T04:11:21.499Z,5.80
2023-02-12T04:14:08.538Z,5.80
2023-02-12T04:16:45.174Z,5.80
2023-02-12T04:19:23.566Z,5.80
2023-02-12T04:22:15.331Z,5.80
2023-02-12T04:24:52.826Z,5.70
2023-02-12T04:27:30.380Z,5.70
2023-02-12T04:30:08.165Z,5.70
2023-02-12T04:32:44.065Z,5.70
2023-02-12T04:35:21.609Z,5.70
2023-02-12T04:37:56.062Z,5.70
2023-02-12T04:40:24.921Z,5.70
2023-02-12T04:42:54.824Z,5.70
2023-02-12T04:45:27.322Z,5.80
2023-02-12T04:47:55.520Z,5.70
2023-02-12T04:50:25.597Z,5.80
2023-02-12T04:52:53.849Z,5.70
2023-02-12T04:55:21.784Z,5.70
2023-02-12T04:57:49.679Z,5.70
2023-02-12T05:00:18.935Z,5.70
2023-02-12T05:02:46.905Z,5.70
2023-02-12T05:05:15.075Z,5.70
2023-02-12T05:07:44.408Z,5.70
2023-02-12T05:10:12.687Z,5.70
2023-02-12T05:12:40.907Z,5.70
2023-02-12T05:15:10.273Z,5.70
2023-02-12T05:17:38.416Z,5.70
2023-02-12T05:20:07.747Z,5.70
2023-02-12T05:22:35.636Z,5.70
2023-02-12T05:25:06.257Z,5.70
2023-02-12T05:27:34.161Z,5.70
2023-02-12T05:30:02.475Z,5.70
2023-02-12T05:32:30.368Z,5.60
2023-02-12T05:34:58.250Z,5.50
2023-02-12T05:37:26.145Z,5.50
2023-02-12T05:39:54.105Z,5.40
2023-02-12T05:42:23.333Z,5.40
2023-02-12T05:44:51.203Z,5.40
2023-02-12T05:47:19.397Z,5.40
2023-02-12T05:49:47.309Z,5.40
2023-02-12T05:52:15.272Z,5.50
2023-02-12T05:54:43.358Z,5.50
2023-02-12T05:57:11.255Z,5.50
2023-02-12T05:59:40.655Z,5.50
2023-02-12T06:02:08.564Z,5.50
2023-02-12T06:04:36.496Z,5.60
2023-02-12T06:07:04.407Z,5.60
2023-02-12T06:09:32.339Z,5.70
2023-02-12T06:12:00.203Z,5.70
2023-02-12T06:14:30.797Z,5.70
2023-02-12T06:17:00.995Z,5.70
2023-02-12T06:19:28.950Z,5.70
2023-02-12T06:21:56.852Z,5.70
2023-02-12T06:24:24.773Z,5.70
2023-02-12T06:26:53.420Z,5.60
2023-02-12T06:29:22.528Z,5.70
2023-02-12T06:31:50.907Z,5.60
2023-02-12T06:34:20.180Z,5.60
2023-02-12T06:36:49.253Z,5.60
2023-02-12T06:39:18.274Z,5.50
2023-02-12T06:41:46.192Z,5.40
2023-02-12T06:44:14.763Z,5.40
2023-02-12T06:46:42.988Z,5.40
2023-02-12T06:49:15.185Z,5.40
2023-02-12T06:51:44.482Z,5.40
2023-02-12T06:54:18.658Z,5.40
2023-02-12T06:56:46.619Z,5.40
2023-02-12T06:59:17.230Z,5.40
2023-02-12T07:01:45.496Z,5.50
2023-02-12T07:04:13.571Z,5.50
2023-02-12T07:06:42.066Z,5.50
2023-02-12T07:09:11.294Z,5.40
2023-02-12T07:11:39.700Z,5.40
2023-02-12T07:14:08.465Z,5.40
2023-02-12T07:16:36.522Z,5.40
2023-02-12T07:19:04.519Z,5.40
2023-02-12T07:21:32.825Z,5.40
2023-02-12T07:24:00.780Z,5.40
2023-02-12T07:26:30.169Z,5.40
2023-02-12T07:28:59.330Z,5.40
2023-02-12T07:31:27.414Z,5.40
2023-02-12T07:33:57.124Z,5.50
2023-02-12T07:36:27.408Z,5.50
2023-02-12T07:38:55.829Z,5.50
2023-02-12T07:41:26.194Z,5.50
2023-02-12T07:43:58.789Z,5.50
2023-02-12T07:46:30.595Z,5.50
2023-02-12T07:49:00.521Z,5.50
2023-02-12T07:51:29.504Z,5.50
2023-02-12T07:53:57.527Z,5.50
2023-02-12T07:56:30.836Z,5.50
2023-02-12T07:59:03.169Z,5.50
2023-02-12T08:01:35.734Z,5.50
2023-02-12T08:04:07.122Z,5.50
2023-02-12T08:06:38.857Z,5.50
2023-02-12T08:09:09.834Z,5.50
2023-02-12T08:11:40.031Z,5.50
2023-02-12T08:14:11.557Z,5.50
2023-02-12T08:16:42.210Z,5.50
2023-02-12T08:19:19.055Z,5.50
2023-02-12T08:21:51.410Z,5.50
2023-02-12T08:24:19.741Z,5.60
2023-02-12T08:26:47.673Z,5.60
2023-02-12T08:29:20.243Z,5.60
2023-02-12T08:31:51.264Z,5.60
2023-02-12T08:34:21.707Z,5.60
2023-02-12T08:36:51.831Z,5.60
2023-02-12T08:39:20.468Z,5.60
2023-02-12T08:41:49.383Z,5.60
2023-02-12T08:44:19.856Z,5.70
2023-02-12T08:46:51.003Z,5.70
2023-02-12T08:49:23.056Z,5.70
2023-02-12T08:51:54.075Z,5.70
2023-02-12T08:54:24.748Z,5.70
2023-02-12T08:56:57.472Z,5.80
2023-02-12T08:59:26.956Z,5.80
2023-02-12T09:01:55.495Z,5.70
2023-02-12T09:04:25.810Z,5.80
2023-02-12T09:06:54.465Z,5.80
2023-02-12T09:09:22.732Z,5.80
2023-02-12T09:11:51.184Z,5.80
2023-02-12T09:14:23.754Z,5.80
2023-02-12T09:16:54.154Z,5.90
2023-02-12T09:19:22.569Z,5.80
2023-02-12T09:21:55.712Z,5.80
2023-02-12T09:24:24.720Z,5.90
2023-02-12T09:26:52.696Z,5.90
2023-02-12T09:29:20.612Z,5.90
2023-02-12T09:31:48.733Z,5.90
2023-02-12T09:34:18.171Z,6.00
2023-02-12T09:36:46.160Z,6.00
2023-02-12T09:39:14.075Z,6.00
2023-02-12T09:42:15.299Z,6.00
2023-02-12T09:44:53.355Z,6.10
2023-02-12T09:47:31.196Z,6.10
2023-02-12T09:50:18.553Z,6.10
2023-02-12T09:52:46.867Z,6.10
2023-02-12T09:55:18.229Z,6.20
2023-02-12T09:57:47.136Z,6.20
2023-02-12T10:00:22.726Z,6.20
2023-02-12T10:02:54.494Z,6.30
2023-02-12T10:05:32.140Z,6.30
2023-02-12T10:08:25.866Z,6.30
2023-02-12T10:11:01.961Z,6.30
2023-02-12T10:13:46.886Z,6.40
2023-02-12T10:16:29.309Z,6.40
2023-02-12T10:19:20.485Z,6.40
2023-02-12T10:22:05.712Z,6.50
2023-02-12T10:24:58.610Z,6.50
2023-02-12T10:27:39.857Z,6.60
2023-02-12T10:30:21.473Z,6.60
2023-02-12T10:32:55.482Z,6.60
2023-02-12T10:35:27.591Z,6.70
2023-02-12T10:38:03.924Z,6.70
2023-02-12T10:40:35.369Z,6.80
2023-02-12T10:43:04.164Z,6.80
2023-02-12T10:45:35.825Z,6.80
2023-02-12T10:48:09.877Z,6.70
2023-02-12T10:51:00.994Z,6.80
2023-02-12T10:53:35.273Z,6.80
2023-02-12T10:56:24.663Z,6.80
2023-02-12T10:58:59.365Z,6.90
2023-02-12T11:01:30.264Z,6.90
2023-02-12T11:04:01.014Z,7.00
2023-02-12T11:06:32.548Z,7.00
2023-02-12T11:09:01.818Z,7.00
2023-02-12T11:11:32.069Z,7.00
2023-02-12T11:14:04.775Z,7.00
2023-02-12T11:16:36.250Z,7.00
2023-02-12T11:19:08.075Z,7.00
2023-02-12T11:21:37.324Z,7.10
2023-02-12T11:24:31.592Z,7.00
2023-02-12T11:27:24.528Z,7.00
2023-02-12T11:30:16.827Z,7.00
2023-02-12T11:32:45.139Z,6.90
2023-02-12T11:35:23.802Z,6.90
2023-02-12T11:37:56.108Z,6.90
2023-02-12T11:40:28.759Z,6.90
2023-02-12T11:43:01.562Z,6.90
2023-02-12T11:45:35.474Z,6.90
2023-02-12T11:48:04.145Z,6.80
2023-02-12T11:50:34.083Z,6.70
2023-02-12T11:53:09.425Z,6.50
2023-02-12T11:55:42.238Z,6.50
2023-02-12T11:58:18.748Z,6.50
2023-02-12T12:00:55.421Z,6.50
2023-02-12T12:03:31.418Z,6.50
2023-02-12T12:06:07.861Z,6.50
2023-02-12T12:08:45.006Z,6.50
2023-02-12T12:11:21.694Z,6.50
2023-02-12T12:13:58.516Z,6.60
2023-02-12T12:16:54.588Z,6.50
2023-02-12T12:19:48.311Z,6.50
2023-02-12T12:22:30.495Z,6.50
2023-02-12T12:25:09.167Z,6.50
2023-02-12T12:28:05.504Z,6.50
2023-02-12T12:30:56.475Z,6.60
2023-02-12T12:33:44.000Z,6.50
2023-02-12T12:37:06.534Z,6.50
2023-02-12T12:39:46.531Z,6.60
2023-02-12T12:42:56.709Z,6.60
2023-02-12T12:45:53.507Z,6.50
2023-02-12T12:48:41.272Z,6.60
2023-02-12T12:51:25.579Z,6.60
2023-02-12T12:54:09.567Z,6.60
2023-02-12T12:56:59.317Z,6.60
2023-02-12T13:00:24.395Z,6.60
2023-02-12T13:03:31.750Z,6.70
2023-02-12T13:06:14.165Z,6.70
2023-02-12T13:09:03.046Z,6.70
2023-02-12T13:11:43.473Z,6.80
2023-02-12T13:14:32.060Z,6.80
2023-02-12T13:17:11.328Z,6.80
2023-02-12T13:19:55.024Z,6.80
2023-02-12T13:22:36.078Z,6.80
2023-02-12T13:25:23.425Z,6.80
2023-02-12T13:27:53.797Z,6.90
2023-02-12T13:30:28.236Z,6.90
2023-02-12T13:33:10.881Z,6.90
2023-02-12T13:35:46.421Z,6.90
2023-02-12T13:38:25.593Z,6.90
2023-02-12T13:40:57.669Z,6.90
2023-02-12T13:43:46.311Z,6.90
2023-02-12T13:46:27.877Z,7.00
2023-02-12T13:49:11.121Z,7.00
2023-02-12T13:51:47.177Z,7.00
2023-02-12T13:54:30.902Z,7.00
2023-02-12T13:57:02.531Z,7.10
2023-02-12T13:59:49.809Z,7.10
2023-02-12T14:02:46.440Z,7.00
2023-02-12T14:05:41.240Z,7.00
2023-02-12T14:08:36.998Z,7.00
2023-02-12T14:11:09.419Z,7.00
2023-02-12T14:13:52.429Z,7.00
2023-02-12T14:16:41.255Z,7.10
2023-02-12T14:19:54.947Z,7.10
2023-02-12T14:23:20.706Z,7.10
2023-02-12T14:25:59.802Z,7.10
2023-02-12T14:28:41.229Z,7.10
2023-02-12T14:31:31.683Z,7.10
2023-02-12T14:34:49.040Z,7.10
2023-02-12T14:37:38.444Z,7.20
2023-02-12T14:40:51.028Z,7.20
2023-02-12T14:43:31.652Z,7.20
2023-02-12T14:46:50.941Z,7.30
2023-02-12T14:49:28.791Z,7.30
2023-02-12T14:52:04.892Z,7.30
2023-02-12T14:54:37.960Z,7.30
2023-02-12T14:57:10.540Z,7.40
2023-02-12T14:59:43.829Z,7.40
2023-02-12T15:02:23.209Z,7.40
2023-02-12T15:04:54.771Z,7.40
2023-02-12T15:07:34.379Z,7.40
2023-02-12T15:10:10.725Z,7.40
2023-02-12T15:12:46.180Z,7.40
2023-02-12T15:15:24.391Z,7.40
2023-02-12T15:18:03.583Z,7.40
2023-02-12T15:20:44.418Z,7.40
2023-02-12T15:23:35.376Z,7.40
2023-02-12T15:26:05.962Z,7.30
2023-02-12T15:28:38.241Z,7.30
2023-02-12T15:31:10.951Z,7.40
2023-02-12T15:33:45.922Z,7.40
2023-02-12T15:36:21.794Z,7.30
2023-02-12T15:38:54.184Z,7.40
2023-02-12T15:41:30.248Z,7.30
2023-02-12T15:43:59.277Z,7.30
2023-02-12T15:46:27.562Z,7.30
2023-02-12T15:48:56.230Z,7.30
2023-02-12T15:51:31.671Z,7.20
2023-02-12T15:54:04.877Z,7.20
2023-02-12T15:56:35.085Z,7.20
2023-02-12T15:59:04.840Z,7.20
2023-02-12T16:01:36.786Z,7.20
2023-02-12T16:04:07.555Z,7.20
2023-02-12T16:06:37.814Z,7.10
2023-02-12T16:09:11.277Z,7.10
2023-02-12T16:11:40.083Z,7.00
2023-02-12T16:14:21.732Z,7.00
2023-02-12T16:16:52.877Z,7.00
2023-02-12T16:19:24.212Z,7.10
2023-02-12T16:22:00.394Z,7.10
2023-02-12T16:24:34.290Z,7.00
2023-02-12T16:27:09.818Z,7.00
2023-02-12T16:29:45.842Z,7.00
2023-02-12T16:32:31.079Z,7.00
2023-02-12T16:35:07.182Z,7.00
2023-02-12T16:37:48.538Z,7.00
2023-02-12T16:40:30.825Z,7.00
2023-02-12T16:43:21.998Z,7.00
2023-02-12T16:45:51.011Z,7.00
2023-02-12T16:48:25.496Z,7.00
2023-02-12T16:50:57.209Z,7.00
2023-02-12T16:53:42.845Z,7.00
2023-02-12T16:56:20.979Z,7.00
2023-02-12T16:58:51.012Z,6.90
2023-02-12T17:01:26.948Z,6.90
2023-02-12T17:03:57.668Z,6.90
2023-02-12T17:06:29.157Z,6.90
2023-02-12T17:09:00.442Z,6.90
2023-02-12T17:11:35.202Z,6.90
2023-02-12T17:14:03.146Z,6.90
2023-02-12T17:16:32.335Z,6.90
2023-02-12T17:19:01.293Z,7.00
2023-02-12T17:21:32.424Z,7.00
2023-02-12T17:24:06.570Z,7.00
2023-02-12T17:26:34.525Z,7.00
2023-02-12T17:29:05.504Z,6.90
2023-02-12T17:31:33.869Z,7.00
2023-02-12T17:34:02.096Z,7.00
2023-02-12T17:36:30.084Z,7.00
2023-02-12T17:38:58.068Z,6.90
2023-02-12T17:41:27.486Z,6.90
2023-02-12T17:43:55.417Z,7.00
2023-02-12T17:46:26.909Z,7.00
2023-02-12T17:48:54.849Z,7.00
2023-02-12T17:51:22.855Z,6.90
2023-02-12T17:53:51.303Z,6.80
2023-02-12T17:56:22.512Z,6.70
2023-02-12T17:58:53.839Z,6.70
2023-02-12T18:01:24.746Z,6.60
2023-02-12T18:03:55.534Z,6.60
2023-02-12T18:06:28.091Z,6.50
2023-02-12T18:08:58.377Z,6.60
2023-02-12T18:11:27.597Z,6.50
2023-02-12T18:13:58.759Z,6.50
2023-02-12T18:16:31.191Z,6.40
2023-02-12T18:19:00.683Z,6.30
2023-02-12T18:21:28.833Z,6.20
2023-02-12T18:23:57.160Z,6.20
2023-02-12T18:26:26.189Z,6.20
2023-02-12T18:28:58.314Z,6.10
2023-02-12T18:31:27.390Z,6.20
2023-02-12T18:33:56.409Z,6.20
2023-02-12T18:36:24.854Z,6.20
2023-02-12T18:38:53.931Z,6.20
2023-02-12T18:41:25.041Z,6.20
2023-02-12T18:43:53.509Z,6.20
2023-02-12T18:46:25.667Z,6.10
2023-02-12T18:48:54.396Z,6.10
2023-02-12T18:51:25.315Z,6.00
2023-02-12T18:53:55.895Z,6.00
2023-02-12T18:56:24.031Z,6.00
2023-02-12T18:58:57.445Z,6.00
2023-02-12T19:01:28.460Z,6.10
2023-02-12T19:04:04.481Z,6.10
2023-02-12T19:06:34.974Z,6.10
2023-02-12T19:09:04.917Z,6.10
2023-02-12T19:11:33.649Z,6.10
2023-02-12T19:14:01.636Z,6.10
2023-02-12T19:16:32.856Z,6.10
2023-02-12T19:19:02.721Z,6.00
2023-02-12T19:21:30.999Z,5.90
2023-02-12T19:24:08.344Z,5.70
2023-02-12T19:26:37.349Z,5.70
2023-02-12T19:29:11.178Z,5.70
2023-02-12T19:31:45.447Z,5.70
2023-02-12T19:34:19.489Z,5.70
2023-02-12T19:36:50.743Z,5.70
2023-02-12T19:39:24.932Z,5.60
2023-02-12T19:41:56.028Z,5.60
2023-02-12T19:44:26.058Z,5.50
2023-02-12T19:46:56.836Z,5.50
2023-02-12T19:49:27.118Z,5.50
2023-02-12T19:51:55.523Z,5.50
2023-02-12T19:54:25.377Z,5.50
2023-02-12T19:56:55.203Z,5.50
2023-02-12T19:59:25.882Z,5.50
2023-02-12T20:01:56.401Z,5.50
2023-02-12T20:04:25.578Z,5.40
2023-02-12T20:06:53.986Z,5.40
2023-02-12T20:09:23.519Z,5.30
2023-02-12T20:11:51.899Z,5.30
2023-02-12T20:14:22.549Z,5.30
2023-02-12T20:16:52.281Z,5.20
2023-02-12T20:19:25.784Z,5.20
2023-02-12T20:21:55.923Z,5.20
2023-02-12T20:24:26.366Z,5.10
2023-02-12T20:26:56.143Z,5.10
2023-02-12T20:29:24.996Z,5.00
2023-02-12T20:31:53.511Z,5.00
2023-02-12T20:34:23.024Z,5.00
2023-02-12T20:36:52.080Z,5.00
2023-02-12T20:39:21.888Z,5.00
2023-02-12T20:41:51.276Z,5.00
2023-02-12T20:44:21.958Z,5.00
2023-02-12T20:46:56.382Z,4.90
2023-02-12T20:49:26.826Z,4.90
2023-02-12T20:51:54.904Z,4.90
2023-02-12T20:54:23.042Z,4.90
2023-02-12T20:56:51.675Z,4.80
2023-02-12T20:59:21.388Z,4.80
2023-02-12T21:01:49.732Z,4.80
2023-02-12T21:04:20.181Z,4.70
2023-02-12T21:06:49.645Z,4.70
2023-02-12T21:09:18.664Z,4.70
2023-02-12T21:11:47.558Z,4.70
2023-02-12T21:14:24.494Z,4.80
2023-02-12T21:16:54.885Z,4.80
2023-02-12T21:19:23.414Z,4.80
2023-02-12T21:21:54.239Z,4.70
2023-02-12T21:24:25.430Z,4.70
2023-02-12T21:26:56.239Z,4.70
2023-02-12T21:29:26.520Z,4.60
2023-02-12T21:31:55.045Z,4.60
2023-02-12T21:34:24.761Z,4.60
2023-02-12T21:36:56.284Z,4.60
2023-02-12T21:39:28.357Z,4.60
2023-02-12T21:41:59.954Z,4.60
2023-02-12T21:44:28.357Z,4.50
2023-02-12T21:46:57.471Z,4.40
2023-02-12T21:49:27.522Z,4.30
2023-02-12T21:51:59.495Z,4.20
2023-02-12T21:54:28.916Z,4.20
2023-02-12T21:56:57.483Z,4.10
2023-02-12T21:59:26.332Z,4.00
2023-02-12T22:01:58.277Z,4.00
2023-02-12T22:04:26.813Z,4.00
2023-02-12T22:06:56.409Z,4.00
2023-02-12T22:09:25.666Z,4.00
2023-02-12T22:11:54.151Z,4.00
2023-02-12T22:14:23.200Z,4.00
2023-02-12T22:16:52.160Z,4.00
2023-02-12T22:19:20.446Z,4.00
2023-02-12T22:21:52.373Z,4.00
2023-02-12T22:24:21.534Z,4.00
2023-02-12T22:26:50.902Z,4.00
2023-02-12T22:29:19.069Z,4.00
2023-02-12T22:31:48.107Z,4.00
2023-02-12T22:34:19.567Z,4.00
2023-02-12T22:36:48.432Z,4.00
2023-02-12T22:39:17.542Z,4.00
2023-02-12T22:41:45.748Z,4.00
2023-02-12T22:44:16.621Z,3.90
2023-02-12T22:46:45.376Z,4.00
2023-02-12T22:49:13.405Z,3.90
2023-02-12T22:51:41.905Z,3.90
2023-02-12T22:54:15.162Z,3.90
2023-02-12T22:56:43.647Z,3.90
2023-02-12T22:59:14.392Z,3.90
2023-02-12T23:01:43.376Z,3.90
2023-02-12T23:04:16.968Z,3.90
2023-02-12T23:06:45.729Z,3.80
2023-02-12T23:09:17.682Z,3.90
2023-02-12T23:11:46.200Z,3.90
2023-02-12T23:14:15.450Z,3.90
2023-02-12T23:16:43.388Z,3.90
2023-02-12T23:19:12.180Z,3.90
2023-02-12T23:21:40.732Z,3.90
2023-02-12T23:24:09.045Z,3.90
2023-02-12T23:26:37.054Z,3.90
2023-02-12T23:29:05.009Z,3.90
2023-02-12T23:31:34.448Z,3.90
2023-02-12T23:34:02.431Z,3.90
2023-02-12T23:36:30.373Z,3.90
2023-02-12T23:38:59.255Z,4.00
2023-02-12T23:41:27.233Z,4.00
2023-02-12T23:43:55.122Z,3.90
2023-02-12T23:46:23.102Z,3.90
2023-02-12T23:48:52.389Z,3.90
2023-02-12T23:51:20.329Z,3.90
2023-02-12T23:53:48.208Z,3.90
2023-02-12T23:56:16.327Z,3.90
2023-02-12T23:58:44.221Z,3.90
